Comte. Rolim Adolfo Amaro–Jundiaí State Airport

SBJD · São Paulo, Brazil

METAR history SBJD · Comte. Rolim Adolfo Amaro–Jundiaí State Airport

Below you see METARs of the last few days. Select a year to browse through older METARs, from the year 2007 onwards.

December 5, 2022

Time Code Weather Temp. Visibility Ceiling Wind METAR/SPECI
01:00
V
22 °C 10 km+ 6,000 ft 020° 020° 2 kt METAR SBKP 050400Z 02002KT 9999 -RA FEW040 BKN060 OVC100 22/20 Q1013
00:00
V
22 °C 10 km+ 8,000 ft 050° 050° 4 kt METAR SBKP 050300Z 05004KT 9999 -RA FEW040 BKN080 OVC100 22/20 Q1014

December 4, 2022

Time Code Weather Temp. Visibility Ceiling Wind METAR/SPECI
23:00
V
22 °C 10 km+ 6,000 ft 070° 070° 3 kt METAR SBKP 050200Z 07003KT 9999 VCSH SCT035 FEW040TCU BKN060 22/20 Q1015
22:00
V
22 °C 10 km+ - 050° 050° 5 kt METAR SBKP 050100Z 05005KT 9999 FEW045 22/20 Q1014
21:00
V
22 °C 10 km+ - 050° 050° 4 kt METAR SBKP 050000Z 05004KT 9999 FEW030 22/20 Q1014
20:00
V
21 °C 10 km+ - 090° 090° 4 kt METAR SBKP 042300Z 09004KT 9999 FEW015 SCT033 21/20 Q1013
19:00
V
22 °C 10 km+ - 090° 090° 3 kt METAR SBKP 042200Z 09003KT 9999 FEW015 FEW020TCU SCT080 22/20 Q1012
18:00
V
22 °C 10 km+ - 100° 100° 3 kt METAR SBKP 042100Z 10003KT 9999 FEW040 FEW050TCU SCT090 22/21 Q1012
17:00
V
22 °C 10 km+ - 060° 060° 4 kt METAR SBKP 042000Z 06004KT 9999 FEW007 FEW050TCU SCT060 22/20 Q1021
16:00
V
22 °C 10 km+ 4,000 ft Var Var 2 kt METAR SBKP 041900Z VRB02KT 9999 VCSH FEW013 BKN040 FEW050TCU 22/21 Q1012 RERA
15:23
M
21 °C 7 km 4,000 ft 320° 320° 4 kt METAR SBKP 041823Z 32004KT 290V020 7000 -RA SCT013 BKN040 FEW050TCU 21/20 Q1012 RERA
15:00
I
21 °C 3 km 1,700 ft 310° 310° 16 kt METAR SBKP 041800Z 31016KT 3000 +RA BR BKN017 SCT030TCU 21/20 Q1012
14:43
I
23 °C 3 km 1,500 ft 030° 030° 17 kt METAR SBKP 041743Z 03017KT 3000 +RA BR BKN015 SCT030TCU 23/20 Q1012
14:00
V
25 °C 10 km+ - 050° 050° 11 kt METAR SBKP 041700Z 05011KT 9999 VCSH FEW025 SCT030TCU 25/21 Q1012
13:00
M
22 °C 6 km 7,000 ft 040° 040° 11 kt METAR SBKP 041600Z 04011KT 6000 -RA SCT030 FEW035TCU BKN070 22/20 Q1013 RERA
12:31
I
23 °C 3 km 9,000 ft 020° 020° 12 - 24 kt METAR SBKP 041531Z 02012G24KT 3000 RA BR SCT025 FEW030TCU BKN090 23/20 Q1014
12:00
V
26 °C 10 km+ 9,000 ft 340° 340° 9 kt METAR SBKP 041500Z 34009KT 310V040 9999 VCSH SCT025 FEW030TCU BKN090 26/20 Q1014
11:00
M
25 °C 10 km+ 2,500 ft 360° 360° 8 kt METAR SBKP 041400Z 36008KT 310V040 9999 VCSH BKN025 FEW030TCU BKN070 25/19 Q1014
10:00
M
24 °C 10 km+ 1,500 ft 320° 320° 8 kt METAR SBKP 041300Z 32008KT 270V350 9999 -RA BKN015 BKN050 24/20 Q1015
09:00
V
24 °C 10 km+ 5,000 ft 330° 330° 6 kt METAR SBKP 041200Z 33006KT 9999 SCT015 BKN050 24/20 Q1015
08:00
V
23 °C 10 km+ 5,000 ft 320° 320° 4 kt METAR SBKP 041100Z 32004KT 9999 SCT036 BKN050 23/20 Q1014
07:00
V
22 °C 10 km+ 10,000 ft 350° 350° 4 kt METAR SBKP 041000Z 35004KT 9999 FEW035 BKN100 22/20 Q1014
06:00
V
22 °C 10 km+ 10,000 ft 030° 030° 5 kt METAR SBKP 040900Z 03005KT 9999 FEW035 BKN100 22/19 Q1013
05:00
V
22 °C 10 km+ 10,000 ft 030° 030° 5 kt METAR SBKP 040800Z 03005KT 9999 FEW035 BKN100 22/19 Q1012
04:00
V
22 °C 10 km+ 10,000 ft 350° 350° 5 kt METAR SBKP 040700Z 35005KT 9999 FEW035 BKN100 22/20 Q1012
03:00
V
22 °C 10 km+ 10,000 ft Var 000° 0 kt METAR SBKP 040600Z 00000KT 9999 FEW035 BKN100 22/20 Q1012
02:00
V
21 °C 10 km+ 10,000 ft 090° 090° 3 kt METAR SBKP 040500Z 09003KT 9999 FEW035 BKN100 21/20 Q1012
01:00
V
21 °C 10 km+ 10,000 ft 120° 120° 4 kt METAR SBKP 040400Z 12004KT 9999 FEW035 BKN100 21/19 Q1012
00:00
V
21 °C 10 km+ 10,000 ft 090° 090° 3 kt METAR SBKP 040300Z 09003KT 9999 FEW035 BKN100 21/20 Q1013

December 3, 2022

Time Code Weather Temp. Visibility Ceiling Wind METAR/SPECI
23:00
V
22 °C 10 km+ 10,000 ft 120° 120° 4 kt METAR SBKP 040200Z 12004KT 9999 FEW035 BKN100 22/20 Q1014
22:00
V
22 °C 10 km+ - 110° 110° 5 kt METAR SBKP 040100Z 11005KT CAVOK 22/20 Q1014
21:00
V
22 °C 10 km+ - 090° 090° 9 kt METAR SBKP 040000Z 09009KT 9999 -RA NSC 22/19 Q1014
20:00
V
21 °C 10 km+ - 100° 100° 9 kt METAR SBKP 032300Z 10009KT 9999 FEW040 SCT090 21/18 Q1013 RETS
19:39
V
22 °C 10 km+ 10,000 ft 100° 100° 10 kt METAR SBKP 032239Z 10010KT 9999 -RA FEW040 OVC100 22/17 Q1013 RETS
19:00
V
24 °C 10 km+ 7,000 ft 120° 120° 15 kt METAR SBKP 032200Z 12015KT 9999 TS VCSH SCT035 FEW040CB BKN070 24/19 Q1013
18:38
V
24 °C 10 km+ 7,000 ft 130° 130° 16 kt METAR SBKP 032138Z 13016KT 9999 VCSH SCT035 FEW045TCU BKN070 24/19 Q1013
18:00
V
28 °C 10 km+ 10,000 ft 200° 200° 5 kt METAR SBKP 032100Z 20005KT 9999 FEW045 FEW050TCU SCT070 BKN100 28/19 Q1012
17:00
V
28 °C 10 km+ - 270° 270° 5 kt METAR SBKP 032000Z 27005KT 230V310 9999 FEW045 FEW050TCU SCT100 28/19 Q1011
16:00
V
28 °C 10 km+ - 290° 290° 8 kt METAR SBKP 031900Z 29008KT 9999 SCT045 FEW050TCU SCT100 28/19 Q1012
15:00
V
29 °C 10 km+ - 340° 340° 7 kt METAR SBKP 031800Z 34007KT 9999 SCT045 FEW050TCU 29/18 Q1012
14:00
V
28 °C 10 km+ - 360° 360° 9 kt METAR SBKP 031700Z 36009KT 9999 SCT040 28/19 Q1013
13:00
V
28 °C 10 km+ - 010° 010° 8 kt METAR SBKP 031600Z 01008KT 290V050 9999 SCT035 28/19 Q1014
12:00
V
27 °C 10 km+ - 340° 340° 9 kt METAR SBKP 031500Z 34009KT 310V010 9999 SCT033 27/20 Q1015
11:00
V
26 °C 10 km+ - 360° 360° 9 kt METAR SBKP 031400Z 36009KT 320V030 9999 SCT030 26/19 Q1016
10:00
V
26 °C 10 km+ - 020° 020° 10 kt METAR SBKP 031300Z 02010KT 9999 SCT025 26/20 Q1017
09:00
V
24 °C 10 km+ - 360° 360° 7 kt METAR SBKP 031200Z 36007KT 330V040 9999 FEW023 24/20 Q1017
08:00
V
23 °C 10 km+ - 350° 350° 3 kt METAR SBKP 031100Z 35003KT 320V030 9999 FEW020 SCT100 23/20 Q1016
07:00
V
22 °C 10 km+ - Var 000° 0 kt METAR SBKP 031000Z 00000KT CAVOK 22/20 Q1015
06:00
V
22 °C 10 km+ - 320° 320° 1 kt METAR SBKP 030900Z 32001KT CAVOK 22/20 Q1015
05:00
V
22 °C 10 km+ - 020° 020° 4 kt METAR SBKP 030800Z 02004KT CAVOK 22/20 Q1014
04:00
V
22 °C 10 km+ - 020° 020° 7 kt METAR SBKP 030700Z 02007KT CAVOK 22/20 Q1013
03:00
V
22 °C 10 km+ - 020° 020° 6 kt METAR SBKP 030600Z 02006KT CAVOK 22/20 Q1013
02:00
V
23 °C 10 km+ - 010° 010° 8 kt METAR SBKP 030500Z 01008KT CAVOK 23/19 Q1013
01:00
V
22 °C 10 km+ - 110° 110° 4 kt METAR SBKP 030400Z 11004KT CAVOK 22/20 Q1013
00:00
V
22 °C 10 km+ - 110° 110° 6 kt METAR SBKP 030300Z 11006KT CAVOK 22/20 Q1013

December 2, 2022

Time Code Weather Temp. Visibility Ceiling Wind METAR/SPECI
23:00
V
22 °C 10 km+ - 110° 110° 9 kt METAR SBKP 030200Z 11009KT CAVOK 22/20 Q1014
22:00
V
22 °C 10 km+ - 120° 120° 9 kt METAR SBKP 030100Z 12009KT 9999 -RA NSC 22/20 Q1014
21:00
V
22 °C 10 km+ 8,000 ft 180° 180° 7 kt METAR SBKP 030000Z 18007KT 9999 -RA FEW040 SCT070 OVC080 22/21 Q1014 RETS
20:00
V
21 °C 10 km+ 10,000 ft Var 000° 0 kt METAR SBKP 022300Z 00000KT 9999 4000N -TSRA FEW020 SCT050CB OVC100 21/20 Q1014 RERA
19:35
I
21 °C 2.5 km 7,000 ft 050° 050° 5 kt METAR SBKP 022235Z 05005KT 2500 TSRA BR FEW018 SCT050CB OVC070 21/20 Q1014
19:00
V
21 °C 10 km+ 7,000 ft 230° 230° 12 kt METAR SBKP 022200Z 23012KT 9999 TS VCSH FEW018 SCT050CB BKN070 21/18 Q1013
18:30
V
24 °C 10 km+ 10,000 ft 210° 210° 19 kt METAR SBKP 022130Z 21019KT 9999 TS VCSH FEW020 SCT050CB BKN100 24/20 Q1012
18:00
V
27 °C 10 km+ 8,000 ft 120° 120° 10 kt METAR SBKP 022100Z 12010KT 080V150 9999 -RA FEW035 SCT040TCU BKN080 27/19 Q1011
17:00
V
30 °C 10 km+ - 090° 090° 4 kt METAR SBKP 022000Z 09004KT 010V180 9999 VCSH FEW035 FEW045TCU SCT100 30/19 Q1010
16:00
V
30 °C 10 km+ - Var Var 2 kt METAR SBKP 021900Z VRB02KT 9999 VCSH SCT035 FEW045TCU SCT100 30/18 Q1010
15:00
V
30 °C 10 km+ - 360° 360° 5 kt METAR SBKP 021800Z 36005KT 310V080 9999 SCT035 FEW045TCU SCT080 30/19 Q1011
14:00
V
30 °C 10 km+ 4,500 ft 050° 050° 4 kt METAR SBKP 021700Z 05004KT 360V140 9999 BKN045 30/09 Q1012
13:00
V
30 °C 10 km+ 4,500 ft Var Var 2 kt METAR SBKP 021600Z VRB02KT 9999 BKN045 30/18 Q1013
12:00
V
29 °C 10 km+ - 020° 020° 6 kt METAR SBKP 021500Z 02006KT 320V090 9999 SCT045 29/19 Q1014
11:00
V
28 °C 10 km+ - 330° 330° 7 kt METAR SBKP 021400Z 33007KT 270V050 9999 SCT040 28/18 Q1015
10:00
V
27 °C 10 km+ - 010° 010° 6 kt METAR SBKP 021300Z 01006KT 290V050 9999 FEW040 27/17 Q1015
09:00
V
27 °C 10 km+ - 040° 040° 6 kt METAR SBKP 021200Z 04006KT 360V080 CAVOK 27/18 Q1015
08:00
V
26 °C 10 km+ - 050° 050° 8 kt METAR SBKP 021100Z 05008KT 020V080 CAVOK 26/17 Q1015
07:00
V
23 °C 10 km+ - 120° 120° 5 kt METAR SBKP 021000Z 12005KT CAVOK 23/18 Q1015

We and third parties follow your internet behavior on our website with cookies. If you continue, we assume you agree with our cookie policy.